sensor_id;sensor_type;location;lat;lon;timestamp;P1;durP1;ratioP1;P2;durP2;ratioP2
10383;SDS011;5238;43.508;4.980;2024-03-02T00:00:48;6.35;;;2.95;;
10383;SDS011;5238;43.508;4.980;2024-03-02T00:03:17;5.13;;;3.15;;
10383;SDS011;5238;43.508;4.980;2024-03-02T00:05:48;4.50;;;2.72;;
10383;SDS011;5238;43.508;4.980;2024-03-02T00:08:18;6.10;;;3.08;;
10383;SDS011;5238;43.508;4.980;2024-03-02T00:10:49;6.30;;;2.97;;
10383;SDS011;5238;43.508;4.980;2024-03-02T00:13:16;6.13;;;3.92;;
10383;SDS011;5238;43.508;4.980;2024-03-02T00:15:48;5.25;;;3.00;;
10383;SDS011;5238;43.508;4.980;2024-03-02T00:18:20;5.28;;;3.33;;
10383;SDS011;5238;43.508;4.980;2024-03-02T00:20:52;6.28;;;3.00;;
10383;SDS011;5238;43.508;4.980;2024-03-02T00:23:20;5.72;;;3.47;;
10383;SDS011;5238;43.508;4.980;2024-03-02T00:25:49;4.43;;;3.00;;
10383;SDS011;5238;43.508;4.980;2024-03-02T00:28:19;8.25;;;4.20;;
10383;SDS011;5238;43.508;4.980;2024-03-02T00:30:57;6.30;;;4.07;;
10383;SDS011;5238;43.508;4.980;2024-03-02T00:33:31;7.45;;;3.95;;
10383;SDS011;5238;43.508;4.980;2024-03-02T00:35:59;6.30;;;4.43;;
10383;SDS011;5238;43.508;4.980;2024-03-02T00:38:27;6.40;;;4.05;;
10383;SDS011;5238;43.508;4.980;2024-03-02T00:40:54;9.13;;;4.35;;
10383;SDS011;5238;43.508;4.980;2024-03-02T00:46:27;7.55;;;3.80;;
10383;SDS011;5238;43.508;4.980;2024-03-02T00:48:57;6.88;;;3.58;;
10383;SDS011;5238;43.508;4.980;2024-03-02T00:51:26;7.50;;;3.88;;
10383;SDS011;5238;43.508;4.980;2024-03-02T00:53:54;5.57;;;3.67;;
10383;SDS011;5238;43.508;4.980;2024-03-02T00:56:24;7.18;;;4.03;;
10383;SDS011;5238;43.508;4.980;2024-03-02T00:58:52;8.10;;;4.00;;
10383;SDS011;5238;43.508;4.980;2024-03-02T01:01:19;6.32;;;3.88;;
10383;SDS011;5238;43.508;4.980;2024-03-02T01:03:46;5.45;;;3.53;;
10383;SDS011;5238;43.508;4.980;2024-03-02T01:06:15;7.05;;;3.92;;
10383;SDS011;5238;43.508;4.980;2024-03-02T01:08:43;7.30;;;3.83;;
10383;SDS011;5238;43.508;4.980;2024-03-02T01:11:11;8.10;;;4.05;;
10383;SDS011;5238;43.508;4.980;2024-03-02T01:13:38;4.07;;;2.80;;
10383;SDS011;5238;43.508;4.980;2024-03-02T01:16:05;7.43;;;3.78;;
10383;SDS011;5238;43.508;4.980;2024-03-02T01:18:32;6.95;;;3.63;;
10383;SDS011;5238;43.508;4.980;2024-03-02T01:20:59;5.40;;;3.00;;
10383;SDS011;5238;43.508;4.980;2024-03-02T01:23:28;6.45;;;3.50;;
10383;SDS011;5238;43.508;4.980;2024-03-02T01:25:55;7.15;;;3.70;;
10383;SDS011;5238;43.508;4.980;2024-03-02T01:28:21;6.93;;;3.70;;
10383;SDS011;5238;43.508;4.980;2024-03-02T01:30:48;4.68;;;3.05;;
10383;SDS011;5238;43.508;4.980;2024-03-02T01:33:16;6.28;;;3.13;;
10383;SDS011;5238;43.508;4.980;2024-03-02T01:35:43;5.30;;;3.00;;
10383;SDS011;5238;43.508;4.980;2024-03-02T01:38:10;4.13;;;2.42;;
10383;SDS011;5238;43.508;4.980;2024-03-02T01:40:38;6.15;;;2.83;;
10383;SDS011;5238;43.508;4.980;2024-03-02T01:43:05;3.72;;;2.60;;
10383;SDS011;5238;43.508;4.980;2024-03-02T01:45:33;6.78;;;2.70;;
10383;SDS011;5238;43.508;4.980;2024-03-02T01:48:01;4.95;;;2.58;;
10383;SDS011;5238;43.508;4.980;2024-03-02T01:50:28;6.93;;;3.00;;
10383;SDS011;5238;43.508;4.980;2024-03-02T01:52:57;5.22;;;2.58;;
10383;SDS011;5238;43.508;4.980;2024-03-02T01:55:25;5.53;;;2.85;;
10383;SDS011;5238;43.508;4.980;2024-03-02T01:57:55;5.07;;;2.83;;
10383;SDS011;5238;43.508;4.980;2024-03-02T02:00:23;4.88;;;2.80;;
10383;SDS011;5238;43.508;4.980;2024-03-02T02:02:51;7.93;;;2.78;;
10383;SDS011;5238;43.508;4.980;2024-03-02T02:05:18;3.40;;;2.35;;
10383;SDS011;5238;43.508;4.980;2024-03-02T02:07:45;3.97;;;2.45;;
10383;SDS011;5238;43.508;4.980;2024-03-02T02:10:12;4.05;;;2.45;;
10383;SDS011;5238;43.508;4.980;2024-03-02T02:12:39;5.03;;;2.70;;
10383;SDS011;5238;43.508;4.980;2024-03-02T10:32:59;9.05;;;3.40;;
10383;SDS011;5238;43.508;4.980;2024-03-02T10:35:41;13.55;;;2.50;;
10383;SDS011;5238;43.508;4.980;2024-03-02T10:38:10;11.38;;;2.47;;
10383;SDS011;5238;43.508;4.980;2024-03-02T10:40:38;11.07;;;2.60;;
10383;SDS011;5238;43.508;4.980;2024-03-02T10:43:04;13.68;;;2.60;;
10383;SDS011;5238;43.508;4.980;2024-03-02T10:45:33;10.98;;;2.38;;
10383;SDS011;5238;43.508;4.980;2024-03-02T10:48:00;13.80;;;3.00;;
10383;SDS011;5238;43.508;4.980;2024-03-02T10:50:30;11.00;;;2.40;;
10383;SDS011;5238;43.508;4.980;2024-03-02T10:52:59;11.32;;;2.92;;
10383;SDS011;5238;43.508;4.980;2024-03-02T10:55:26;7.88;;;2.60;;
10383;SDS011;5238;43.508;4.980;2024-03-02T10:57:53;13.32;;;2.92;;
10383;SDS011;5238;43.508;4.980;2024-03-02T11:00:23;15.90;;;3.05;;
10383;SDS011;5238;43.508;4.980;2024-03-02T11:02:55;10.55;;;2.65;;
10383;SDS011;5238;43.508;4.980;2024-03-02T11:05:26;10.40;;;2.35;;
10383;SDS011;5238;43.508;4.980;2024-03-02T11:07:57;12.45;;;2.75;;
10383;SDS011;5238;43.508;4.980;2024-03-02T11:10:28;11.48;;;2.67;;
10383;SDS011;5238;43.508;4.980;2024-03-02T11:13:02;11.75;;;3.05;;
10383;SDS011;5238;43.508;4.980;2024-03-02T11:15:31;12.20;;;2.22;;
10383;SDS011;5238;43.508;4.980;2024-03-02T11:18:00;12.27;;;2.90;;
10383;SDS011;5238;43.508;4.980;2024-03-02T11:20:30;10.25;;;3.20;;
10383;SDS011;5238;43.508;4.980;2024-03-02T11:22:59;12.38;;;2.45;;
10383;SDS011;5238;43.508;4.980;2024-03-02T11:25:31;9.18;;;2.20;;
10383;SDS011;5238;43.508;4.980;2024-03-02T11:28:04;13.10;;;3.00;;
10383;SDS011;5238;43.508;4.980;2024-03-02T11:30:50;8.57;;;2.15;;
10383;SDS011;5238;43.508;4.980;2024-03-02T11:33:24;17.48;;;2.95;;
10383;SDS011;5238;43.508;4.980;2024-03-02T11:35:56;13.52;;;3.08;;
10383;SDS011;5238;43.508;4.980;2024-03-02T11:38:29;13.32;;;2.40;;
10383;SDS011;5238;43.508;4.980;2024-03-02T11:40:57;12.20;;;2.97;;
10383;SDS011;5238;43.508;4.980;2024-03-02T11:43:25;14.13;;;2.75;;
10383;SDS011;5238;43.508;4.980;2024-03-02T11:45:57;5.93;;;2.17;;
10383;SDS011;5238;43.508;4.980;2024-03-02T11:48:24;9.02;;;2.78;;
10383;SDS011;5238;43.508;4.980;2024-03-02T11:50:52;7.82;;;2.30;;
10383;SDS011;5238;43.508;4.980;2024-03-02T11:53:20;11.82;;;2.58;;
10383;SDS011;5238;43.508;4.980;2024-03-02T11:55:49;10.48;;;2.50;;
10383;SDS011;5238;43.508;4.980;2024-03-02T11:58:18;10.00;;;2.40;;
10383;SDS011;5238;43.508;4.980;2024-03-02T12:00:50;13.18;;;3.05;;
10383;SDS011;5238;43.508;4.980;2024-03-02T12:03:17;9.75;;;2.75;;
10383;SDS011;5238;43.508;4.980;2024-03-02T12:05:47;16.23;;;3.30;;
10383;SDS011;5238;43.508;4.980;2024-03-02T12:08:15;12.65;;;2.70;;
10383;SDS011;5238;43.508;4.980;2024-03-02T12:10:43;12.25;;;2.72;;
10383;SDS011;5238;43.508;4.980;2024-03-02T12:13:23;17.10;;;3.00;;
10383;SDS011;5238;43.508;4.980;2024-03-02T12:15:52;12.27;;;2.60;;
10383;SDS011;5238;43.508;4.980;2024-03-02T12:18:20;12.75;;;2.55;;
10383;SDS011;5238;43.508;4.980;2024-03-02T12:20:48;14.15;;;3.20;;
10383;SDS011;5238;43.508;4.980;2024-03-02T12:23:17;12.63;;;3.10;;
10383;SDS011;5238;43.508;4.980;2024-03-02T12:25:45;9.73;;;2.75;;
10383;SDS011;5238;43.508;4.980;2024-03-02T12:28:12;11.57;;;2.50;;
10383;SDS011;5238;43.508;4.980;2024-03-02T12:30:40;10.02;;;2.45;;
10383;SDS011;5238;43.508;4.980;2024-03-02T12:33:07;14.32;;;3.55;;
10383;SDS011;5238;43.508;4.980;2024-03-02T12:35:35;10.52;;;2.58;;
10383;SDS011;5238;43.508;4.980;2024-03-02T12:38:02;15.45;;;3.15;;
10383;SDS011;5238;43.508;4.980;2024-03-02T12:40:30;13.30;;;3.10;;
10383;SDS011;5238;43.508;4.980;2024-03-02T12:42:57;13.57;;;2.97;;
10383;SDS011;5238;43.508;4.980;2024-03-02T12:45:24;10.73;;;2.42;;
10383;SDS011;5238;43.508;4.980;2024-03-02T12:47:52;8.73;;;2.92;;
10383;SDS011;5238;43.508;4.980;2024-03-02T12:50:19;12.60;;;2.95;;
10383;SDS011;5238;43.508;4.980;2024-03-02T12:52:50;13.98;;;3.17;;
10383;SDS011;5238;43.508;4.980;2024-03-02T12:55:19;15.05;;;3.13;;
10383;SDS011;5238;43.508;4.980;2024-03-02T12:57:47;13.27;;;3.00;;
10383;SDS011;5238;43.508;4.980;2024-03-02T13:00:17;11.20;;;3.70;;
10383;SDS011;5238;43.508;4.980;2024-03-02T13:02:45;14.90;;;2.60;;
10383;SDS011;5238;43.508;4.980;2024-03-02T13:05:15;10.77;;;3.25;;
10383;SDS011;5238;43.508;4.980;2024-03-02T13:07:42;12.30;;;2.80;;
10383;SDS011;5238;43.508;4.980;2024-03-02T13:10:10;15.70;;;3.35;;
10383;SDS011;5238;43.508;4.980;2024-03-02T13:12:38;19.50;;;3.42;;
10383;SDS011;5238;43.508;4.980;2024-03-02T13:15:05;13.05;;;2.60;;
10383;SDS011;5238;43.508;4.980;2024-03-02T13:17:34;13.55;;;3.22;;
10383;SDS011;5238;43.508;4.980;2024-03-02T13:20:02;11.13;;;2.78;;
10383;SDS011;5238;43.508;4.980;2024-03-02T13:22:34;10.70;;;2.72;;
10383;SDS011;5238;43.508;4.980;2024-03-02T13:25:01;14.55;;;3.25;;
10383;SDS011;5238;43.508;4.980;2024-03-02T13:27:29;9.93;;;2.75;;
10383;SDS011;5238;43.508;4.980;2024-03-02T13:29:57;11.85;;;2.92;;
10383;SDS011;5238;43.508;4.980;2024-03-02T13:32:24;14.25;;;2.83;;
10383;SDS011;5238;43.508;4.980;2024-03-02T13:34:51;10.88;;;3.40;;
10383;SDS011;5238;43.508;4.980;2024-03-02T13:37:18;15.18;;;3.22;;
10383;SDS011;5238;43.508;4.980;2024-03-02T13:39:47;17.90;;;4.40;;
10383;SDS011;5238;43.508;4.980;2024-03-02T13:42:14;16.20;;;2.83;;
10383;SDS011;5238;43.508;4.980;2024-03-02T13:44:43;11.63;;;3.05;;
10383;SDS011;5238;43.508;4.980;2024-03-02T13:47:10;11.30;;;2.50;;
10383;SDS011;5238;43.508;4.980;2024-03-02T13:49:37;10.38;;;2.60;;
10383;SDS011;5238;43.508;4.980;2024-03-02T13:52:08;14.73;;;3.63;;
10383;SDS011;5238;43.508;4.980;2024-03-02T13:54:38;12.90;;;3.00;;
10383;SDS011;5238;43.508;4.980;2024-03-02T13:57:06;15.48;;;3.67;;
10383;SDS011;5238;43.508;4.980;2024-03-02T13:59:34;14.52;;;2.88;;
10383;SDS011;5238;43.508;4.980;2024-03-02T14:02:01;19.63;;;4.35;;
10383;SDS011;5238;43.508;4.980;2024-03-02T14:04:29;13.43;;;3.38;;
10383;SDS011;5238;43.508;4.980;2024-03-02T14:06:58;17.13;;;3.75;;
10383;SDS011;5238;43.508;4.980;2024-03-02T14:09:25;15.10;;;3.17;;
10383;SDS011;5238;43.508;4.980;2024-03-02T14:11:52;16.65;;;3.55;;
10383;SDS011;5238;43.508;4.980;2024-03-02T14:14:21;17.08;;;2.85;;
10383;SDS011;5238;43.508;4.980;2024-03-02T14:16:48;17.10;;;3.50;;
10383;SDS011;5238;43.508;4.980;2024-03-02T14:19:15;19.70;;;3.10;;
10383;SDS011;5238;43.508;4.980;2024-03-02T14:21:42;18.05;;;3.22;;
10383;SDS011;5238;43.508;4.980;2024-03-02T14:24:09;14.52;;;3.22;;
10383;SDS011;5238;43.508;4.980;2024-03-02T14:26:36;23.20;;;3.63;;
10383;SDS011;5238;43.508;4.980;2024-03-02T14:29:03;16.85;;;3.50;;
10383;SDS011;5238;43.508;4.980;2024-03-02T14:31:32;17.38;;;3.90;;
10383;SDS011;5238;43.508;4.980;2024-03-02T14:34:00;16.05;;;3.30;;
10383;SDS011;5238;43.508;4.980;2024-03-02T14:36:27;16.35;;;3.97;;
10383;SDS011;5238;43.508;4.980;2024-03-02T14:38:54;13.63;;;3.25;;
10383;SDS011;5238;43.508;4.980;2024-03-02T14:41:21;16.35;;;3.55;;
10383;SDS011;5238;43.508;4.980;2024-03-02T14:43:49;13.48;;;3.08;;
10383;SDS011;5238;43.508;4.980;2024-03-02T14:46:16;18.27;;;4.00;;
10383;SDS011;5238;43.508;4.980;2024-03-02T14:48:45;13.35;;;3.55;;
10383;SDS011;5238;43.508;4.980;2024-03-02T14:51:12;12.63;;;3.53;;
10383;SDS011;5238;43.508;4.980;2024-03-02T14:53:39;14.98;;;2.70;;
10383;SDS011;5238;43.508;4.980;2024-03-02T14:56:06;12.38;;;3.47;;
10383;SDS011;5238;43.508;4.980;2024-03-02T14:58:33;15.85;;;3.40;;
10383;SDS011;5238;43.508;4.980;2024-03-02T15:01:01;20.83;;;4.43;;
10383;SDS011;5238;43.508;4.980;2024-03-02T15:03:30;16.55;;;3.65;;
10383;SDS011;5238;43.508;4.980;2024-03-02T15:05:59;20.67;;;3.50;;
10383;SDS011;5238;43.508;4.980;2024-03-02T15:08:26;17.08;;;3.90;;
10383;SDS011;5238;43.508;4.980;2024-03-02T15:10:53;17.30;;;4.32;;
10383;SDS011;5238;43.508;4.980;2024-03-02T15:13:22;18.35;;;4.15;;
10383;SDS011;5238;43.508;4.980;2024-03-02T15:15:50;14.60;;;3.58;;
10383;SDS011;5238;43.508;4.980;2024-03-02T15:18:17;16.13;;;3.78;;
10383;SDS011;5238;43.508;4.980;2024-03-02T15:20:45;12.98;;;3.42;;
10383;SDS011;5238;43.508;4.980;2024-03-02T15:23:13;12.50;;;2.97;;
10383;SDS011;5238;43.508;4.980;2024-03-02T15:25:40;15.57;;;3.33;;
10383;SDS011;5238;43.508;4.980;2024-03-02T15:28:07;12.00;;;4.00;;
10383;SDS011;5238;43.508;4.980;2024-03-02T15:30:34;20.33;;;3.85;;
10383;SDS011;5238;43.508;4.980;2024-03-02T15:33:01;15.88;;;3.70;;
10383;SDS011;5238;43.508;4.980;2024-03-02T15:35:28;15.65;;;3.17;;
10383;SDS011;5238;43.508;4.980;2024-03-02T15:37:54;15.30;;;4.20;;
10383;SDS011;5238;43.508;4.980;2024-03-02T15:40:22;18.10;;;3.58;;
10383;SDS011;5238;43.508;4.980;2024-03-02T15:42:49;18.00;;;4.45;;
10383;SDS011;5238;43.508;4.980;2024-03-02T15:45:16;11.90;;;3.70;;
10383;SDS011;5238;43.508;4.980;2024-03-02T15:47:43;21.45;;;4.00;;
10383;SDS011;5238;43.508;4.980;2024-03-02T15:50:10;20.20;;;4.20;;
10383;SDS011;5238;43.508;4.980;2024-03-02T15:52:38;22.42;;;3.83;;
10383;SDS011;5238;43.508;4.980;2024-03-02T15:55:05;14.05;;;3.97;;
10383;SDS011;5238;43.508;4.980;2024-03-02T15:57:33;19.55;;;4.40;;
10383;SDS011;5238;43.508;4.980;2024-03-02T16:00:02;17.05;;;3.92;;
10383;SDS011;5238;43.508;4.980;2024-03-02T16:02:30;13.23;;;4.15;;
10383;SDS011;5238;43.508;4.980;2024-03-02T16:04:57;16.08;;;3.83;;
10383;SDS011;5238;43.508;4.980;2024-03-02T16:07:24;16.77;;;3.85;;
10383;SDS011;5238;43.508;4.980;2024-03-02T16:09:51;12.82;;;3.90;;
10383;SDS011;5238;43.508;4.980;2024-03-02T16:12:18;12.10;;;3.40;;
10383;SDS011;5238;43.508;4.980;2024-03-02T16:14:46;13.13;;;3.20;;
10383;SDS011;5238;43.508;4.980;2024-03-02T16:17:13;16.52;;;3.65;;
10383;SDS011;5238;43.508;4.980;2024-03-02T16:19:40;15.75;;;3.75;;
10383;SDS011;5238;43.508;4.980;2024-03-02T16:22:07;21.02;;;4.45;;
10383;SDS011;5238;43.508;4.980;2024-03-02T16:24:36;16.80;;;3.90;;
10383;SDS011;5238;43.508;4.980;2024-03-02T16:27:03;14.05;;;3.85;;
10383;SDS011;5238;43.508;4.980;2024-03-02T16:29:30;19.08;;;3.72;;
10383;SDS011;5238;43.508;4.980;2024-03-02T16:31:59;12.95;;;3.17;;
10383;SDS011;5238;43.508;4.980;2024-03-02T16:34:26;16.70;;;3.70;;
10383;SDS011;5238;43.508;4.980;2024-03-02T16:36:53;11.98;;;3.13;;
10383;SDS011;5238;43.508;4.980;2024-03-02T16:39:20;16.30;;;3.55;;
10383;SDS011;5238;43.508;4.980;2024-03-02T16:41:47;11.95;;;3.55;;
10383;SDS011;5238;43.508;4.980;2024-03-02T16:44:14;16.10;;;3.72;;
10383;SDS011;5238;43.508;4.980;2024-03-02T16:46:41;12.57;;;3.05;;
10383;SDS011;5238;43.508;4.980;2024-03-02T16:49:11;14.80;;;3.33;;
10383;SDS011;5238;43.508;4.980;2024-03-02T16:51:38;15.02;;;2.95;;
10383;SDS011;5238;43.508;4.980;2024-03-02T16:54:05;10.40;;;2.65;;
10383;SDS011;5238;43.508;4.980;2024-03-02T16:56:37;14.35;;;3.45;;
10383;SDS011;5238;43.508;4.980;2024-03-02T16:59:04;18.20;;;3.20;;
10383;SDS011;5238;43.508;4.980;2024-03-02T17:01:31;11.70;;;3.28;;
10383;SDS011;5238;43.508;4.980;2024-03-02T17:03:58;17.17;;;3.63;;
10383;SDS011;5238;43.508;4.980;2024-03-02T17:06:27;14.02;;;3.30;;
10383;SDS011;5238;43.508;4.980;2024-03-02T17:08:55;10.95;;;3.25;;
10383;SDS011;5238;43.508;4.980;2024-03-02T17:11:22;14.48;;;3.28;;
10383;SDS011;5238;43.508;4.980;2024-03-02T17:13:49;15.25;;;3.50;;
10383;SDS011;5238;43.508;4.980;2024-03-02T17:16:22;12.00;;;3.20;;
10383;SDS011;5238;43.508;4.980;2024-03-02T17:18:49;11.82;;;3.08;;
10383;SDS011;5238;43.508;4.980;2024-03-02T17:21:17;16.88;;;3.85;;
10383;SDS011;5238;43.508;4.980;2024-03-02T17:23:46;13.25;;;3.15;;
10383;SDS011;5238;43.508;4.980;2024-03-02T17:26:13;11.88;;;2.85;;
10383;SDS011;5238;43.508;4.980;2024-03-02T17:28:40;11.40;;;3.17;;
10383;SDS011;5238;43.508;4.980;2024-03-02T17:31:07;15.05;;;4.20;;
10383;SDS011;5238;43.508;4.980;2024-03-02T17:33:34;12.52;;;3.10;;
10383;SDS011;5238;43.508;4.980;2024-03-02T17:36:01;9.75;;;3.17;;
10383;SDS011;5238;43.508;4.980;2024-03-02T17:38:29;11.73;;;2.83;;
10383;SDS011;5238;43.508;4.980;2024-03-02T17:40:57;15.02;;;3.50;;
10383;SDS011;5238;43.508;4.980;2024-03-02T17:43:24;15.05;;;3.10;;
10383;SDS011;5238;43.508;4.980;2024-03-02T17:45:51;16.25;;;3.45;;
10383;SDS011;5238;43.508;4.980;2024-03-02T17:48:18;13.30;;;3.30;;
10383;SDS011;5238;43.508;4.980;2024-03-02T17:50:46;17.13;;;3.58;;
10383;SDS011;5238;43.508;4.980;2024-03-02T17:53:14;9.02;;;2.65;;
10383;SDS011;5238;43.508;4.980;2024-03-02T17:55:41;10.15;;;2.83;;
10383;SDS011;5238;43.508;4.980;2024-03-02T17:58:09;18.77;;;3.33;;
10383;SDS011;5238;43.508;4.980;2024-03-02T18:00:36;16.67;;;3.72;;
10383;SDS011;5238;43.508;4.980;2024-03-02T18:03:03;12.98;;;3.67;;
10383;SDS011;5238;43.508;4.980;2024-03-02T18:05:31;13.02;;;3.10;;
10383;SDS011;5238;43.508;4.980;2024-03-02T18:07:58;13.02;;;3.38;;
10383;SDS011;5238;43.508;4.980;2024-03-02T18:10:25;12.38;;;3.42;;
10383;SDS011;5238;43.508;4.980;2024-03-02T18:12:53;11.30;;;3.47;;
10383;SDS011;5238;43.508;4.980;2024-03-02T18:15:22;14.02;;;3.35;;
10383;SDS011;5238;43.508;4.980;2024-03-02T18:17:49;10.50;;;2.70;;
10383;SDS011;5238;43.508;4.980;2024-03-02T18:20:16;14.27;;;3.47;;
10383;SDS011;5238;43.508;4.980;2024-03-02T18:22:43;13.52;;;3.30;;
10383;SDS011;5238;43.508;4.980;2024-03-02T18:25:10;11.70;;;3.72;;
10383;SDS011;5238;43.508;4.980;2024-03-02T18:27:37;14.13;;;3.28;;
10383;SDS011;5238;43.508;4.980;2024-03-02T18:30:04;18.38;;;3.58;;
10383;SDS011;5238;43.508;4.980;2024-03-02T18:32:36;19.70;;;3.55;;
10383;SDS011;5238;43.508;4.980;2024-03-02T18:35:04;10.95;;;3.63;;
10383;SDS011;5238;43.508;4.980;2024-03-02T18:37:33;13.25;;;3.85;;
10383;SDS011;5238;43.508;4.980;2024-03-02T18:40:00;15.57;;;3.60;;
10383;SDS011;5238;43.508;4.980;2024-03-02T18:42:27;12.13;;;3.42;;
10383;SDS011;5238;43.508;4.980;2024-03-02T18:44:54;15.55;;;3.45;;
10383;SDS011;5238;43.508;4.980;2024-03-02T18:47:21;16.75;;;3.50;;
10383;SDS011;5238;43.508;4.980;2024-03-02T18:49:50;20.23;;;3.70;;
10383;SDS011;5238;43.508;4.980;2024-03-02T18:52:20;18.45;;;3.20;;
10383;SDS011;5238;43.508;4.980;2024-03-02T18:54:47;10.38;;;3.20;;
10383;SDS011;5238;43.508;4.980;2024-03-02T18:57:14;12.48;;;2.83;;
10383;SDS011;5238;43.508;4.980;2024-03-02T18:59:41;12.57;;;3.08;;
10383;SDS011;5238;43.508;4.980;2024-03-02T19:02:09;9.25;;;2.65;;
10383;SDS011;5238;43.508;4.980;2024-03-02T19:04:36;13.10;;;3.05;;
10383;SDS011;5238;43.508;4.980;2024-03-02T19:07:05;11.55;;;3.80;;
10383;SDS011;5238;43.508;4.980;2024-03-02T19:09:32;10.95;;;2.75;;
10383;SDS011;5238;43.508;4.980;2024-03-02T19:11:59;13.45;;;3.70;;
10383;SDS011;5238;43.508;4.980;2024-03-02T19:14:26;15.18;;;2.85;;
10383;SDS011;5238;43.508;4.980;2024-03-02T19:16:52;10.77;;;2.38;;
10383;SDS011;5238;43.508;4.980;2024-03-02T19:19:19;11.20;;;3.00;;
10383;SDS011;5238;43.508;4.980;2024-03-02T19:21:46;12.82;;;2.88;;
10383;SDS011;5238;43.508;4.980;2024-03-02T19:24:14;16.02;;;3.40;;
10383;SDS011;5238;43.508;4.980;2024-03-02T19:26:41;16.73;;;3.65;;
10383;SDS011;5238;43.508;4.980;2024-03-02T19:29:08;15.80;;;3.40;;
10383;SDS011;5238;43.508;4.980;2024-03-02T19:31:36;16.35;;;3.28;;
10383;SDS011;5238;43.508;4.980;2024-03-02T19:34:03;17.77;;;4.10;;
10383;SDS011;5238;43.508;4.980;2024-03-02T19:36:30;14.88;;;3.88;;
10383;SDS011;5238;43.508;4.980;2024-03-02T19:38:57;19.23;;;4.03;;
10383;SDS011;5238;43.508;4.980;2024-03-02T19:41:25;14.43;;;3.22;;
10383;SDS011;5238;43.508;4.980;2024-03-02T19:43:52;11.05;;;3.05;;
10383;SDS011;5238;43.508;4.980;2024-03-02T19:46:20;17.63;;;3.42;;
10383;SDS011;5238;43.508;4.980;2024-03-02T19:48:47;12.63;;;4.07;;
10383;SDS011;5238;43.508;4.980;2024-03-02T19:51:14;17.92;;;4.25;;
10383;SDS011;5238;43.508;4.980;2024-03-02T19:53:41;16.17;;;3.72;;
10383;SDS011;5238;43.508;4.980;2024-03-02T19:56:08;15.15;;;3.58;;
10383;SDS011;5238;43.508;4.980;2024-03-02T19:58:43;19.48;;;4.07;;
10383;SDS011;5238;43.508;4.980;2024-03-02T20:01:10;16.33;;;3.22;;
10383;SDS011;5238;43.508;4.980;2024-03-02T20:03:37;13.77;;;3.72;;
10383;SDS011;5238;43.508;4.980;2024-03-02T20:06:04;15.65;;;3.58;;
10383;SDS011;5238;43.508;4.980;2024-03-02T20:08:31;13.13;;;3.35;;
10383;SDS011;5238;43.508;4.980;2024-03-02T20:10:58;18.92;;;3.67;;
10383;SDS011;5238;43.508;4.980;2024-03-02T20:13:28;17.35;;;4.13;;
10383;SDS011;5238;43.508;4.980;2024-03-02T20:15:56;13.73;;;4.03;;
10383;SDS011;5238;43.508;4.980;2024-03-02T20:18:24;16.23;;;4.03;;
10383;SDS011;5238;43.508;4.980;2024-03-02T20:20:51;16.10;;;3.70;;
10383;SDS011;5238;43.508;4.980;2024-03-02T20:23:18;14.75;;;3.25;;
10383;SDS011;5238;43.508;4.980;2024-03-02T20:25:45;13.07;;;3.28;;
10383;SDS011;5238;43.508;4.980;2024-03-02T20:28:11;15.10;;;3.47;;
10383;SDS011;5238;43.508;4.980;2024-03-02T20:30:38;18.65;;;3.53;;
10383;SDS011;5238;43.508;4.980;2024-03-02T20:33:07;12.73;;;3.42;;
10383;SDS011;5238;43.508;4.980;2024-03-02T20:35:34;13.02;;;3.42;;
10383;SDS011;5238;43.508;4.980;2024-03-02T20:38:01;18.48;;;3.90;;
10383;SDS011;5238;43.508;4.980;2024-03-02T20:40:28;15.35;;;3.70;;
10383;SDS011;5238;43.508;4.980;2024-03-02T20:42:55;15.70;;;4.15;;
10383;SDS011;5238;43.508;4.980;2024-03-02T20:45:23;13.57;;;3.20;;
10383;SDS011;5238;43.508;4.980;2024-03-02T20:47:50;7.43;;;2.95;;
10383;SDS011;5238;43.508;4.980;2024-03-02T20:50:18;15.30;;;3.55;;
10383;SDS011;5238;43.508;4.980;2024-03-02T20:52:46;11.93;;;2.78;;
10383;SDS011;5238;43.508;4.980;2024-03-02T20:55:13;9.93;;;3.35;;
10383;SDS011;5238;43.508;4.980;2024-03-02T20:57:40;12.98;;;2.78;;
10383;SDS011;5238;43.508;4.980;2024-03-02T21:00:07;15.35;;;2.83;;
10383;SDS011;5238;43.508;4.980;2024-03-02T21:02:35;14.90;;;3.45;;
10383;SDS011;5238;43.508;4.980;2024-03-02T21:05:03;13.07;;;3.30;;
10383;SDS011;5238;43.508;4.980;2024-03-02T21:07:32;13.50;;;3.33;;
10383;SDS011;5238;43.508;4.980;2024-03-02T21:10:00;16.00;;;3.63;;
10383;SDS011;5238;43.508;4.980;2024-03-02T21:12:27;11.82;;;2.80;;
10383;SDS011;5238;43.508;4.980;2024-03-02T21:14:54;9.68;;;2.67;;
10383;SDS011;5238;43.508;4.980;2024-03-02T21:17:21;15.45;;;3.30;;
10383;SDS011;5238;43.508;4.980;2024-03-02T21:19:48;13.57;;;3.83;;
10383;SDS011;5238;43.508;4.980;2024-03-02T21:22:15;15.15;;;3.25;;
10383;SDS011;5238;43.508;4.980;2024-03-02T21:24:44;22.65;;;3.90;;
10383;SDS011;5238;43.508;4.980;2024-03-02T21:27:11;13.23;;;3.45;;
10383;SDS011;5238;43.508;4.980;2024-03-02T21:29:38;10.95;;;2.30;;
10383;SDS011;5238;43.508;4.980;2024-03-02T21:32:05;11.48;;;2.72;;
10383;SDS011;5238;43.508;4.980;2024-03-02T21:34:33;8.00;;;2.05;;
10383;SDS011;5238;43.508;4.980;2024-03-02T21:37:00;14.07;;;2.55;;
10383;SDS011;5238;43.508;4.980;2024-03-02T21:39:28;13.80;;;2.70;;
10383;SDS011;5238;43.508;4.980;2024-03-02T21:41:56;10.60;;;2.60;;
10383;SDS011;5238;43.508;4.980;2024-03-02T21:44:23;9.25;;;3.35;;
10383;SDS011;5238;43.508;4.980;2024-03-02T21:46:50;11.90;;;2.65;;
10383;SDS011;5238;43.508;4.980;2024-03-02T21:49:17;19.83;;;3.85;;
10383;SDS011;5238;43.508;4.980;2024-03-02T21:51:44;15.38;;;3.30;;
10383;SDS011;5238;43.508;4.980;2024-03-02T21:54:11;16.45;;;3.55;;
10383;SDS011;5238;43.508;4.980;2024-03-02T21:56:37;11.35;;;3.60;;
10383;SDS011;5238;43.508;4.980;2024-03-02T21:59:06;7.43;;;2.92;;
10383;SDS011;5238;43.508;4.980;2024-03-02T22:01:33;19.20;;;4.03;;
10383;SDS011;5238;43.508;4.980;2024-03-02T22:04:00;16.50;;;3.45;;
10383;SDS011;5238;43.508;4.980;2024-03-02T22:06:27;17.00;;;4.25;;
10383;SDS011;5238;43.508;4.980;2024-03-02T22:08:54;15.48;;;4.30;;
10383;SDS011;5238;43.508;4.980;2024-03-02T22:11:21;18.27;;;4.78;;
10383;SDS011;5238;43.508;4.980;2024-03-02T22:13:48;17.27;;;3.80;;
10383;SDS011;5238;43.508;4.980;2024-03-02T22:16:16;13.20;;;3.50;;
10383;SDS011;5238;43.508;4.980;2024-03-02T22:18:43;14.38;;;3.78;;
10383;SDS011;5238;43.508;4.980;2024-03-02T22:21:10;20.95;;;4.85;;
10383;SDS011;5238;43.508;4.980;2024-03-02T22:23:37;17.77;;;3.70;;
10383;SDS011;5238;43.508;4.980;2024-03-02T22:26:04;18.27;;;3.40;;
10383;SDS011;5238;43.508;4.980;2024-03-02T22:28:31;17.50;;;3.67;;
10383;SDS011;5238;43.508;4.980;2024-03-02T22:30:58;16.77;;;3.83;;
10383;SDS011;5238;43.508;4.980;2024-03-02T22:33:27;17.42;;;3.55;;
10383;SDS011;5238;43.508;4.980;2024-03-02T22:35:54;26.13;;;4.80;;
10383;SDS011;5238;43.508;4.980;2024-03-02T22:38:20;17.75;;;3.67;;
10383;SDS011;5238;43.508;4.980;2024-03-02T22:40:47;20.92;;;4.43;;
10383;SDS011;5238;43.508;4.980;2024-03-02T22:43:14;16.33;;;3.30;;
10383;SDS011;5238;43.508;4.980;2024-03-02T22:45:41;17.88;;;4.72;;
10383;SDS011;5238;43.508;4.980;2024-03-02T22:48:08;15.77;;;4.47;;
10383;SDS011;5238;43.508;4.980;2024-03-02T22:50:38;15.20;;;3.40;;
10383;SDS011;5238;43.508;4.980;2024-03-02T22:53:05;16.70;;;3.97;;
10383;SDS011;5238;43.508;4.980;2024-03-02T22:55:32;18.02;;;4.03;;
10383;SDS011;5238;43.508;4.980;2024-03-02T22:57:59;21.98;;;4.32;;
10383;SDS011;5238;43.508;4.980;2024-03-02T23:00:26;16.25;;;3.80;;
10383;SDS011;5238;43.508;4.980;2024-03-02T23:03:00;15.18;;;3.42;;
10383;SDS011;5238;43.508;4.980;2024-03-02T23:05:28;21.73;;;4.20;;
10383;SDS011;5238;43.508;4.980;2024-03-02T23:07:56;19.85;;;4.00;;
10383;SDS011;5238;43.508;4.980;2024-03-02T23:10:23;15.35;;;3.58;;
10383;SDS011;5238;43.508;4.980;2024-03-02T23:12:50;20.33;;;4.25;;
10383;SDS011;5238;43.508;4.980;2024-03-02T23:15:17;20.67;;;4.05;;